Time;durP1;ratioP1;P1;durP2;ratioP2;P2;SDS_P1;SDS_P2;PMS_P1;PMS_P2;Temp;Humidity;BMP_temperature;BMP_pressure;BME280_temperature;BME280_humidity;BME280_pressure;Samples;Min_cycle;Max_cycle;Signal;HPM_P1;HPM_P2
2022/05/22 00:00:09;;;;;;;9.10;2.47;;;588.80;2304.00;;;;;;4996261;28;20084;-77
2022/05/22 00:02:35;;;;;;;5.25;1.90;;;588.90;2304.00;;;;;;5014599;28;20017;-77
2022/05/22 00:05:02;;;;;;;9.43;3.00;;;588.90;2380.80;;;;;;5014112;28;20022;-77
2022/05/22 00:07:28;;;;;;;6.47;2.45;;;588.90;2355.20;;;;;;5014386;28;20445;-77
2022/05/22 00:09:53;;;;;;;5.90;2.83;;;589.00;2380.80;;;;;;5014051;28;20018;-77
2022/05/22 00:12:19;;;;;;;4.72;2.40;;;589.00;2380.80;;;;;;4996699;28;20025;-76
2022/05/22 00:14:45;;;;;;;8.50;2.47;;;588.80;2355.20;;;;;;5013998;28;20025;-77
2022/05/22 00:17:11;;;;;;;4.95;2.70;;;588.90;2432.00;;;;;;5014120;28;20026;-77
2022/05/22 00:19:38;;;;;;;6.93;2.40;;;588.90;2380.80;;;;;;4996015;28;20096;-77
2022/05/22 00:22:05;;;;;;;5.93;2.63;;;589.00;2406.40;;;;;;5010335;28;20050;-77
2022/05/22 00:24:32;;;;;;;6.22;2.90;;;589.00;2355.20;;;;;;5013959;28;20026;-77
2022/05/22 00:27:00;;;;;;;3.67;2.15;;;588.80;2355.20;;;;;;4996221;28;20026;-76
2022/05/22 00:29:26;;;;;;;4.45;2.38;;;564.10;2432.00;;;;;;5011510;28;20025;-77
2022/05/22 00:31:52;;;;;;;3.72;2.28;;;564.10;2432.00;;;;;;5013745;28;20022;-76
2022/05/22 00:34:18;;;;;;;6.03;2.50;;;588.80;2432.00;;;;;;5013972;28;20018;-76
2022/05/22 00:36:44;;;;;;;3.83;2.30;;;588.80;2432.00;;;;;;5013410;28;20068;-75
2022/05/22 00:39:10;;;;;;;6.60;2.28;;;564.10;2432.00;;;;;;5013706;28;20038;-77
2022/05/22 00:41:37;;;;;;;7.68;2.80;;;588.80;2432.00;;;;;;5013969;28;20017;-77
2022/05/22 00:44:05;;;;;;;7.53;2.55;;;588.80;2432.00;;;;;;5013434;28;20014;-76
2022/05/22 00:46:32;;;;;;;5.88;2.80;;;564.10;2432.00;;;;;;5013577;28;20018;-77
2022/05/22 00:49:08;;;;;;;10.63;2.70;;;564.10;2432.00;;;;;;5013260;28;20018;-76
2022/05/22 00:51:33;;;;;;;;;;;564.10;2432.00;;;;;;5012252;28;20046;-77
2022/05/22 00:54:06;;;;;;;5.23;2.87;;;564.00;2432.00;;;;;;5013474;28;19968;-76
2022/05/22 00:56:38;;;;;;;5.72;3.13;;;564.10;2432.00;;;;;;5011603;28;20018;-76
2022/05/22 00:59:10;;;;;;;6.78;2.90;;;564.10;2432.00;;;;;;5013196;28;20030;-76
2022/05/22 01:01:38;;;;;;;5.25;2.90;;;563.80;2432.00;;;;;;5013239;28;20104;-77
2022/05/22 01:04:08;;;;;;;7.53;2.58;;;563.80;2432.00;;;;;;5013260;28;20028;-77
2022/05/22 01:06:34;;;;;;;7.72;3.25;;;564.00;2432.00;;;;;;5013062;28;20018;-77
2022/05/22 01:09:00;;;;;;;8.45;3.10;;;564.00;2432.00;;;;;;5013215;28;20029;-76
2022/05/22 01:11:30;;;;;;;8.27;3.42;;;564.10;2432.00;;;;;;5013014;28;20124;-77
2022/05/22 01:14:02;;;;;;;9.10;3.40;;;564.10;2432.00;;;;;;5013069;28;20018;-77
2022/05/22 01:16:28;;;;;;;8.00;3.13;;;564.10;2432.00;;;;;;5010747;28;20022;-76
2022/05/22 01:18:55;;;;;;;7.88;2.70;;;564.00;2432.00;;;;;;5012675;28;20042;-77
2022/05/22 01:21:31;;;;;;;6.70;3.60;;;564.00;2432.00;;;;;;5012747;28;20096;-76
2022/05/22 01:23:57;;;;;;;7.22;3.33;;;564.00;2432.00;;;;;;5011233;28;20063;-77
2022/05/22 01:26:25;;;;;;;8.38;3.50;;;563.90;2432.00;;;;;;5012774;28;20033;-76
2022/05/22 01:28:51;;;;;;;10.43;3.72;;;564.00;2432.00;;;;;;5012776;28;20021;-76
2022/05/22 01:31:18;;;;;;;7.93;3.60;;;563.90;2432.00;;;;;;5012710;28;20504;-76
2022/05/22 01:33:44;;;;;;;8.35;3.40;;;563.90;2432.00;;;;;;5011869;28;20022;-76
2022/05/22 01:36:10;;;;;;;5.53;3.58;;;563.80;2432.00;;;;;;4995015;28;20419;-77
2022/05/22 01:38:37;;;;;;;6.53;3.78;;;563.70;2432.00;;;;;;5012741;28;20030;-77
2022/05/22 01:41:04;;;;;;;7.70;3.80;;;564.10;2432.00;;;;;;5012327;28;20053;-76
2022/05/22 01:43:31;;;;;;;6.97;3.88;;;563.80;2432.00;;;;;;5012667;28;20088;-77
2022/05/22 01:45:56;;;;;;;7.10;3.70;;;563.70;2432.00;;;;;;5012377;28;20014;-77
2022/05/22 01:48:23;;;;;;;9.50;4.05;;;563.70;2432.00;;;;;;5012543;28;20029;-76
2022/05/22 01:50:49;;;;;;;6.72;3.30;;;563.60;2432.00;;;;;;5009849;28;20020;-77
2022/05/22 01:53:18;;;;;;;7.47;4.30;;;563.60;2432.00;;;;;;5012282;28;20528;-77
2022/05/22 01:55:44;;;;;;;5.90;3.80;;;563.60;2432.00;;;;;;4994460;28;20034;-76
2022/05/22 01:58:10;;;;;;;7.03;3.90;;;563.60;2432.00;;;;;;5012253;28;20030;-76
2022/05/22 02:00:37;;;;;;;5.63;3.88;;;563.60;2432.00;;;;;;4994821;28;20109;-76
2022/05/22 02:03:04;;;;;;;9.07;3.90;;;563.60;2432.00;;;;;;5012199;28;20022;-76
2022/05/22 02:05:30;;;;;;;5.85;3.78;;;563.60;2432.00;;;;;;5009837;28;20018;-76
2022/05/22 02:10:40;;;;;;;7.05;3.92;;;563.50;2432.00;;;;;;5011034;28;20079;-76
2022/05/22 02:13:07;;;;;;;10.05;3.85;;;563.50;2432.00;;;;;;5012574;28;20026;-77
2022/05/22 02:15:33;;;;;;;10.95;4.25;;;563.50;2432.00;;;;;;5011982;28;20014;-76
2022/05/22 02:17:59;;;;;;;5.63;3.58;;;563.40;2432.00;;;;;;5012108;28;20105;-77
2022/05/22 02:20:26;;;;;;;6.47;3.92;;;563.40;2432.00;;;;;;5011883;28;20543;-76
2022/05/22 02:22:54;;;;;;;11.57;3.85;;;538.50;2406.40;;;;;;5011649;28;20088;-76
2022/05/22 02:25:29;;;;;;;5.60;3.83;;;538.50;2406.40;;;;;;5011857;28;20034;-77
2022/05/22 02:27:56;;;;;;;6.50;3.63;;;538.50;2406.40;;;;;;5010311;28;20462;-75
2022/05/22 02:30:30;;;;;;;10.68;3.83;;;538.50;2406.40;;;;;;5011877;28;20041;-76
2022/05/22 02:32:56;;;;;;;11.32;3.63;;;563.20;2432.00;;;;;;4994738;28;20018;-77
2022/05/22 02:35:22;;;;;;;7.90;3.35;;;563.30;2329.60;;;;;;5012041;28;20026;-76
2022/05/22 02:37:53;;;;;;;7.68;2.83;;;538.50;2252.80;;;;;;5011534;28;20038;-76
2022/05/22 02:40:22;;;;;;;9.05;3.40;;;538.40;2201.60;;;;;;5012041;28;20026;-76
2022/05/22 02:42:50;;;;;;;5.05;2.95;;;538.40;2150.40;;;;;;5011709;28;20478;-77
2022/05/22 02:45:25;;;;;;;8.13;2.90;;;538.30;2124.80;;;;;;5014321;28;20112;-76
2022/05/22 02:47:51;;;;;;;7.90;3.38;;;538.20;2124.80;;;;;;4995849;28;20025;-77
2022/05/22 02:50:20;;;;;;;5.00;3.08;;;538.40;2073.60;;;;;;5016077;28;20025;-77
2022/05/22 02:52:46;;;;;;;6.95;3.67;;;538.40;2099.20;;;;;;5015517;28;20482;-77
2022/05/22 02:55:11;;;;;;;8.32;3.38;;;538.40;2022.40;;;;;;5015617;28;20041;-78
2022/05/22 02:57:40;;;;;;;6.25;3.45;;;538.50;2022.40;;;;;;5015713;28;20088;-76
2022/05/22 03:00:10;;;;;;;9.60;3.08;;;538.50;1996.80;;;;;;5015490;28;20489;-75
2022/05/22 03:02:36;;;;;;;7.43;3.60;;;538.50;1971.20;;;;;;5015655;28;20022;-76
2022/05/22 03:05:04;;;;;;;9.68;3.25;;;538.10;1996.80;;;;;;5015296;28;20022;-77
2022/05/22 03:07:29;;;;;;;6.50;3.30;;;538.50;1945.60;;;;;;5015120;28;20478;-76
2022/05/22 03:09:55;;;;;;;9.82;3.95;;;538.50;1971.20;;;;;;5015489;28;20021;-76
2022/05/22 03:12:23;;;;;;;6.72;3.85;;;538.50;1971.20;;;;;;5015357;28;20028;-77
2022/05/22 03:14:52;;;;;;;7.18;3.80;;;538.40;1945.60;;;;;;5015253;28;20022;-76
2022/05/22 03:17:19;;;;;;;6.00;3.58;;;538.20;1945.60;;;;;;5015187;28;20076;-78
2022/05/22 03:19:44;;;;;;;7.53;3.33;;;538.20;1920.00;;;;;;5015126;28;20028;-77
2022/05/22 03:22:11;;;;;;;8.27;3.17;;;538.10;1920.00;;;;;;5014660;28;20042;-77
2022/05/22 03:24:38;;;;;;;5.22;2.95;;;538.20;1920.00;;;;;;5015221;28;20033;-77
2022/05/22 03:27:07;;;;;;;4.90;2.60;;;538.00;1894.40;;;;;;5014879;28;20030;-76
2022/05/22 03:29:33;;;;;;;7.03;3.20;;;537.90;1920.00;;;;;;5012349;28;20014;-77
2022/05/22 03:31:59;;;;;;;7.07;3.47;;;538.00;1894.40;;;;;;4997360;28;20109;-77
2022/05/22 03:34:25;;;;;;;6.78;2.90;;;538.00;1868.80;;;;;;5014730;28;20470;-77
2022/05/22 03:36:51;;;;;;;9.23;3.17;;;537.90;1843.20;;;;;;5014988;28;20029;-77
2022/05/22 03:39:17;;;;;;;8.20;2.65;;;537.90;1868.80;;;;;;5014641;28;20038;-77
2022/05/22 03:41:43;;;;;;;7.75;3.05;;;537.90;1868.80;;;;;;5014982;28;20501;-77
2022/05/22 03:44:09;;;;;;;6.05;2.58;;;537.90;1817.60;;;;;;5014673;28;20026;-76
2022/05/22 03:46:34;;;;;;;5.38;3.15;;;538.00;1817.60;;;;;;5014787;28;20441;-76
2022/05/22 03:49:01;;;;;;;12.80;2.97;;;538.00;1792.00;;;;;;5014564;28;20429;-78
2022/05/22 03:51:27;;;;;;;9.10;3.10;;;538.10;1817.60;;;;;;5014721;28;20374;-76
2022/05/22 03:53:53;;;;;;;7.40;2.63;;;538.10;1817.60;;;;;;5015177;28;20033;-76
2022/05/22 03:56:19;;;;;;;4.65;2.42;;;538.10;1817.60;;;;;;5013754;28;20084;-76
2022/05/22 03:58:46;;;;;;;7.22;3.22;;;538.00;1817.60;;;;;;5015088;28;20537;-76
2022/05/22 04:01:12;;;;;;;5.18;2.45;;;538.00;1792.00;;;;;;5014692;28;20109;-76
2022/05/22 04:03:38;;;;;;;6.80;2.38;;;538.00;1792.00;;;;;;4995344;28;20027;-76
2022/05/22 04:06:07;;;;;;;3.55;2.22;;;538.10;1792.00;;;;;;4995043;28;20097;-77
2022/05/22 04:08:33;;;;;;;6.07;3.15;;;538.10;1792.00;;;;;;4995169;28;20034;-77
2022/05/22 04:11:05;;;;;;;4.75;2.33;;;538.20;1766.40;;;;;;4995123;28;20022;-76
2022/05/22 04:13:31;;;;;;;7.45;2.65;;;538.10;1766.40;;;;;;4995076;28;20038;-75
2022/05/22 04:15:57;;;;;;;5.78;2.40;;;538.10;1817.60;;;;;;4995104;28;20026;-76
2022/05/22 04:18:23;;;;;;;5.00;2.10;;;538.20;1817.60;;;;;;4993671;28;20141;-77
2022/05/22 04:20:48;;;;;;;8.38;3.00;;;538.10;1868.80;;;;;;5013778;28;20068;-77
2022/05/22 04:25:59;;;;;;;7.43;2.50;;;538.10;1868.80;;;;;;5013634;28;20049;-76
2022/05/22 04:28:27;;;;;;;5.30;2.42;;;538.00;1868.80;;;;;;5013871;28;20044;-75
2022/05/22 04:30:54;;;;;;;6.88;2.13;;;538.10;1868.80;;;;;;5013699;28;20441;-73
2022/05/22 04:33:20;;;;;;;6.90;2.63;;;538.10;1868.80;;;;;;5013686;28;20018;-75
2022/05/22 04:35:47;;;;;;;6.78;2.75;;;538.10;1868.80;;;;;;5013781;28;20068;-76
2022/05/22 04:38:13;;;;;;;4.15;2.40;;;538.20;1868.80;;;;;;5013822;28;20432;-75
2022/05/22 04:40:40;;;;;;;4.95;2.42;;;538.30;1868.80;;;;;;5013489;28;20547;-76
2022/05/22 04:43:09;;;;;;;4.60;2.78;;;538.20;1868.80;;;;;;5013763;28;20029;-76
2022/05/22 04:45:38;;;;;;;5.65;2.72;;;538.40;1868.80;;;;;;5013560;28;20033;-76
2022/05/22 04:48:05;;;;;;;6.80;2.03;;;538.40;1817.60;;;;;;5010849;28;20022;-78
2022/05/22 04:50:31;;;;;;;4.88;2.38;;;538.50;1766.40;;;;;;4996016;28;20022;-78
2022/05/22 04:52:56;;;;;;;10.98;3.25;;;538.40;1766.40;;;;;;5013156;28;20026;-78
2022/05/22 04:55:22;;;;;;;6.40;2.40;;;538.40;1766.40;;;;;;5013359;28;20394;-78
2022/05/22 04:57:48;;;;;;;6.60;2.47;;;538.40;1817.60;;;;;;4995509;28;20040;-78
2022/05/22 05:00:14;;;;;;;5.63;2.40;;;538.30;1792.00;;;;;;5013796;28;20021;-78
2022/05/22 05:02:40;;;;;;;6.43;2.67;;;538.20;1792.00;;;;;;5012783;28;20034;-77
2022/05/22 05:05:10;;;;;;;9.30;2.90;;;538.20;1817.60;;;;;;5013471;28;20133;-79
2022/05/22 05:07:41;;;;;;;5.75;2.25;;;538.20;1843.20;;;;;;4995681;28;20029;-76
2022/05/22 05:10:08;;;;;;;6.60;2.45;;;538.30;1843.20;;;;;;5013614;28;20022;-75
2022/05/22 05:12:36;;;;;;;7.50;2.92;;;538.40;1868.80;;;;;;4995760;28;20125;-77
2022/05/22 05:15:03;;;;;;;5.68;2.63;;;538.40;1894.40;;;;;;4995756;28;20489;-77
2022/05/22 05:17:29;;;;;;;6.80;2.58;;;538.50;1868.80;;;;;;4996020;28;20057;-77
2022/05/22 05:19:55;;;;;;;6.78;2.90;;;538.50;1843.20;;;;;;5013504;28;20463;-77
2022/05/22 05:22:20;;;;;;;4.80;2.50;;;538.50;1843.20;;;;;;4994830;28;20465;-77
2022/05/22 05:24:46;;;;;;;9.50;2.38;;;538.50;1868.80;;;;;;4995109;28;20026;-78
2022/05/22 05:27:12;;;;;;;11.70;2.70;;;538.50;1868.80;;;;;;5013083;28;20033;-77
2022/05/22 05:29:38;;;;;;;7.22;2.78;;;538.50;1843.20;;;;;;4995092;28;20054;-77
2022/05/22 05:32:04;;;;;;;8.80;2.60;;;563.30;1894.40;;;;;;5012703;28;20018;-76
2022/05/22 05:34:30;;;;;;;8.48;2.40;;;563.20;1792.00;;;;;;5012529;28;20025;-78
2022/05/22 05:36:56;;;;;;;5.53;2.38;;;563.20;1792.00;;;;;;5012818;28;20068;-76
2022/05/22 05:39:22;;;;;;;7.80;2.70;;;563.20;1817.60;;;;;;5012221;28;20037;-76
2022/05/22 05:41:48;;;;;;;5.60;2.20;;;563.30;1817.60;;;;;;4995436;28;20022;-79
2022/05/22 05:44:14;;;;;;;6.75;2.42;;;563.30;1792.00;;;;;;5013372;28;20037;-79
2022/05/22 05:46:40;;;;;;;7.03;2.20;;;563.40;1792.00;;;;;;5012902;28;20021;-77
2022/05/22 05:49:07;;;;;;;9.60;3.40;;;563.60;1740.80;;;;;;5013047;28;20030;-79
2022/05/22 05:51:36;;;;;;;10.90;3.47;;;563.70;1766.40;;;;;;5012732;28;20021;-78
2022/05/22 05:54:02;;;;;;;6.90;2.92;;;563.70;1766.40;;;;;;5012908;28;20029;-77
2022/05/22 05:56:28;;;;;;;7.07;2.92;;;563.70;1792.00;;;;;;5012450;28;20026;-77
2022/05/22 05:58:54;;;;;;;6.63;2.78;;;563.80;1792.00;;;;;;4995296;28;20038;-77
2022/05/22 06:01:22;;;;;;;8.18;2.70;;;563.90;1792.00;;;;;;5012745;28;20033;-77
2022/05/22 06:03:48;;;;;;;5.18;3.25;;;563.90;1843.20;;;;;;5012637;28;20508;-77
2022/05/22 06:06:16;;;;;;;9.23;2.75;;;563.90;1894.40;;;;;;4995343;28;20030;-77
2022/05/22 06:08:44;;;;;;;5.00;2.67;;;564.00;1971.20;;;;;;4994871;28;20030;-78
2022/05/22 06:11:09;;;;;;;6.18;2.75;;;564.00;1945.60;;;;;;5012897;28;20028;-76
2022/05/22 06:13:40;;;;;;;6.90;3.35;;;564.00;1920.00;;;;;;5012532;28;20026;-77
2022/05/22 06:16:07;;;;;;;6.28;2.55;;;564.10;1894.40;;;;;;5012779;28;20025;-77
2022/05/22 06:18:33;;;;;;;4.30;2.55;;;564.10;1920.00;;;;;;5012148;28;20034;-77
2022/05/22 06:21:06;;;;;;;4.93;2.85;;;564.10;1971.20;;;;;;4994254;28;20030;-77
2022/05/22 06:23:33;;;;;;;4.60;3.00;;;588.80;1894.40;;;;;;5012435;28;20068;-76
2022/05/22 06:25:59;;;;;;;4.30;2.58;;;588.80;1868.80;;;;;;5012156;28;20014;-75
2022/05/22 06:28:25;;;;;;;4.97;2.90;;;564.10;1894.40;;;;;;5012536;28;20037;-76
2022/05/22 06:30:50;;;;;;;4.03;2.97;;;564.10;1894.40;;;;;;5012336;28;20076;-77
2022/05/22 06:33:16;;;;;;;7.45;2.60;;;588.80;1920.00;;;;;;5012765;28;20037;-77
2022/05/22 06:35:43;;;;;;;7.18;2.92;;;588.80;1945.60;;;;;;5012438;28;20033;-76
2022/05/22 06:39:49;;;;;;;6.30;2.67;;;588.80;1920.00;;;;;;5012301;28;20046;-78
2022/05/22 06:40:55;;;;;;;;;;;589.00;1817.60;;;;;;5012287;28;20030;-79
2022/05/22 06:43:21;;;;;;;4.28;2.40;;;589.10;1868.80;;;;;;4994865;28;20262;-78
2022/05/22 06:45:50;;;;;;;7.75;2.42;;;589.20;1817.60;;;;;;5012476;28;20423;-80
2022/05/22 06:48:18;;;;;;;6.85;2.50;;;589.10;1792.00;;;;;;4994956;28;20389;-84
2022/05/22 06:50:43;;;;;;;4.30;2.60;;;589.20;1817.60;;;;;;4994797;28;20045;-79
2022/05/22 06:53:09;;;;;;;8.95;2.80;;;589.30;1740.80;;;;;;5012106;28;20386;-81
2022/05/22 06:55:35;;;;;;;6.18;2.50;;;589.40;1766.40;;;;;;5012117;28;20034;-80
2022/05/22 06:58:01;;;;;;;7.93;2.65;;;589.40;1817.60;;;;;;4993885;28;20050;-79
2022/05/22 07:00:27;;;;;;;11.10;2.42;;;589.50;1766.40;;;;;;4994127;28;20433;-79
2022/05/22 07:02:54;;;;;;;4.45;2.08;;;589.50;1766.40;;;;;;5011888;28;20136;-79
2022/05/22 07:05:20;;;;;;;5.60;2.50;;;589.60;1740.80;;;;;;4994244;28;20025;-79
2022/05/22 07:07:47;;;;;;;8.77;2.38;;;589.60;1766.40;;;;;;5011998;28;20022;-79
2022/05/22 07:10:13;;;;;;;3.15;2.03;;;589.70;1740.80;;;;;;4993988;28;20037;-79
2022/05/22 07:12:39;;;;;;;4.28;2.10;;;589.70;1715.20;;;;;;5011932;28;20018;-80
2022/05/22 07:15:07;;;;;;;3.90;2.42;;;614.40;1689.60;;;;;;4994025;28;20018;-78
2022/05/22 07:17:33;;;;;;;6.55;2.45;;;614.50;1664.00;;;;;;5012227;28;20160;-80
2022/05/22 07:19:59;;;;;;;4.25;2.13;;;614.70;1664.00;;;;;;4994481;28;20497;-80
2022/05/22 07:22:25;;;;;;;5.25;2.15;;;614.80;1638.40;;;;;;5011974;28;20104;-82
2022/05/22 07:24:52;;;;;;;4.60;2.10;;;614.80;1638.40;;;;;;4994127;28;20056;-80
2022/05/22 07:27:19;;;;;;;3.03;1.75;;;614.80;1612.80;;;;;;4994767;28;20030;-88
2022/05/22 07:29:44;;;;;;;4.43;1.95;;;614.80;1561.60;;;;;;4994828;28;20034;-80
2022/05/22 07:32:10;;;;;;;6.85;2.55;;;614.80;1561.60;;;;;;4997988;28;20022;-83
2022/05/22 07:34:38;;;;;;;3.05;2.00;;;615.00;1612.80;;;;;;4997922;28;20512;-77
2022/05/22 07:37:06;;;;;;;7.72;1.60;;;615.00;1587.20;;;;;;5015122;28;20021;-77
2022/05/22 07:39:32;;;;;;;6.18;1.80;;;614.90;1536.00;;;;;;4997804;28;20065;-77
2022/05/22 07:41:58;;;;;;;4.25;1.77;;;615.00;1459.20;;;;;;4997580;28;20033;-77
2022/05/22 07:44:24;;;;;;;5.38;1.90;;;615.10;1433.60;;;;;;4996999;28;20034;-80
2022/05/22 07:46:50;;;;;;;4.00;1.70;;;615.00;1408.00;;;;;;4997925;28;20455;-80
2022/05/22 07:52:04;;;;;;;4.75;1.55;;;615.00;1356.80;;;;;;5015646;28;20040;-80
2022/05/22 07:54:38;;;;;;;3.78;1.58;;;615.20;1305.60;;;;;;4997314;28;20501;-81
2022/05/22 07:57:05;;;;;;;2.38;1.50;;;615.20;1331.20;;;;;;4997371;28;20041;-83
2022/05/22 07:59:34;;;;;;;2.75;1.55;;;640.00;1331.20;;;;;;4997764;28;20112;-81
2022/05/22 08:02:02;;;;;;;2.30;1.60;;;640.00;1280.00;;;;;;4997367;28;20053;-81
2022/05/22 08:04:28;;;;;;;4.55;1.77;;;640.10;1280.00;;;;;;5015215;28;20105;-80
2022/05/22 08:06:54;;;;;;;3.10;1.60;;;640.20;1331.20;;;;;;4997276;28;20112;-80
2022/05/22 08:09:20;;;;;;;4.45;1.58;;;640.40;1331.20;;;;;;4997071;28;20478;-79
2022/05/22 08:11:45;;;;;;;2.67;1.50;;;640.60;1305.60;;;;;;5014155;28;20022;-80
2022/05/22 08:14:11;;;;;;;4.72;1.90;;;640.70;1152.00;;;;;;4996823;28;20498;-80
2022/05/22 08:16:37;;;;;;;4.72;1.40;;;665.60;1177.60;;;;;;4997183;28;20453;-80
2022/05/22 08:19:03;;;;;;;10.73;2.33;;;665.70;1177.60;;;;;;4996932;28;20133;-80
2022/05/22 08:21:30;;;;;;;2.65;1.70;;;665.70;1203.20;;;;;;4996969;28;20477;-80
2022/05/22 08:23:55;;;;;;;2.38;1.50;;;665.60;1203.20;;;;;;4996619;28;20062;-81
2022/05/22 08:26:22;;;;;;;4.93;1.98;;;640.80;1152.00;;;;;;4997075;28;20030;-81
2022/05/22 08:28:48;;;;;;;5.15;2.10;;;665.60;1203.20;;;;;;4997081;28;20034;-81
2022/05/22 08:31:14;;;;;;;3.95;1.75;;;640.90;1126.40;;;;;;5014264;28;20076;-80
2022/05/22 08:33:40;;;;;;;2.90;1.60;;;665.60;1152.00;;;;;;4996393;28;20129;-79
2022/05/22 08:36:06;;;;;;;9.18;2.30;;;665.60;1177.60;;;;;;4996670;28;20073;-80
2022/05/22 08:38:32;;;;;;;3.60;1.70;;;665.60;1177.60;;;;;;4996088;28;20045;-80
2022/05/22 08:41:09;;;;;;;3.85;1.40;;;665.60;1177.60;;;;;;4996364;28;20482;-80
2022/05/22 08:43:44;;;;;;;5.18;2.80;;;665.60;1203.20;;;;;;4996157;28;20482;-82
2022/05/22 08:46:18;;;;;;;6.22;1.98;;;665.70;1177.60;;;;;;5014454;28;20037;-82
2022/05/22 08:48:53;;;;;;;5.70;1.70;;;665.70;1177.60;;;;;;4997091;28;20493;-82
2022/05/22 08:51:29;;;;;;;4.97;2.43;;;665.90;1203.20;;;;;;4995630;28;20081;-81
2022/05/22 08:53:58;;;;;;;5.40;2.05;;;666.00;1152.00;;;;;;5013583;28;20058;-82
2022/05/22 08:59:24;;;;;;;5.05;1.80;;;665.90;1075.20;;;;;;5012228;28;20033;-76
2022/05/22 09:02:06;;;;;;;4.72;1.85;;;665.90;1100.80;;;;;;5011451;28;20014;-79
2022/05/22 09:04:43;;;;;;;7.80;2.58;;;665.80;1100.80;;;;;;4994164;28;20145;-78
2022/05/22 09:07:15;;;;;;;5.40;1.75;;;665.90;1100.80;;;;;;5011248;28;20386;-78
2022/05/22 09:09:43;;;;;;;4.68;1.77;;;666.00;1100.80;;;;;;4995424;28;20030;-78
2022/05/22 09:12:23;;;;;;;3.67;1.70;;;666.00;1100.80;;;;;;4995536;28;20105;-79
2022/05/22 09:15:23;;;;;;;4.05;1.95;;;666.10;1075.20;;;;;;4993521;28;20075;-79
2022/05/22 09:18:22;;;;;;;4.00;1.83;;;666.20;1100.80;;;;;;4993189;28;20060;-77
2022/05/22 09:20:55;;;;;;;7.50;1.60;;;666.30;1075.20;;;;;;4993166;28;20018;-80
2022/05/22 09:24:05;;;;;;;8.45;2.45;;;666.30;1075.20;;;;;;5012936;28;20081;-78
2022/05/22 09:26:46;;;;;;;3.33;1.65;;;666.50;1075.20;;;;;;4940171;29;20566;-79
2022/05/22 09:29:33;;;;;;;4.93;1.70;;;691.20;1075.20;;;;;;4926870;29;20106;-79
2022/05/22 09:32:35;;;;;;;3.92;1.42;;;691.20;1024.00;;;;;;4943439;29;20059;-79
2022/05/22 09:35:29;;;;;;;2.17;1.48;;;691.30;1024.00;;;;;;4940725;29;20051;-79
2022/05/22 09:37:57;;;;;;;3.17;1.60;;;691.30;1024.00;;;;;;4940478;29;20429;-79
2022/05/22 09:40:34;;;;;;;6.78;2.03;;;691.60;1049.60;;;;;;4941977;29;20103;-80
2022/05/22 09:43:00;;;;;;;2.80;1.52;;;691.60;1049.60;;;;;;4941579;29;20543;-78
2022/05/22 09:46:09;;;;;;;4.68;1.80;;;691.70;1024.00;;;;;;4941457;29;20023;-80
2022/05/22 09:48:39;;;;;;;3.13;1.75;;;691.80;1024.00;;;;;;4942298;29;20024;-83
2022/05/22 09:51:47;;;;;;;6.35;2.05;;;691.80;972.80;;;;;;4940922;29;20032;-77
2022/05/22 09:54:27;;;;;;;5.85;2.20;;;691.80;998.40;;;;;;4922964;29;20051;-81
2022/05/22 09:57:20;;;;;;;2.45;1.17;;;716.90;998.40;;;;;;4942799;29;20043;-79
2022/05/22 10:00:13;;;;;;;3.63;1.70;;;716.90;998.40;;;;;;4942130;29;20042;-79
2022/05/22 10:02:55;;;;;;;3.25;1.60;;;717.10;972.80;;;;;;4959079;28;20104;-79
2022/05/22 10:05:23;;;;;;;2.90;1.40;;;717.40;947.20;;;;;;5012822;28;20057;-80
2022/05/22 10:08:03;;;;;;;4.13;1.50;;;717.10;947.20;;;;;;4995289;28;20034;-80
2022/05/22 10:11:06;;;;;;;3.35;1.40;;;717.20;921.60;;;;;;4995442;28;20120;-81
2022/05/22 10:13:53;;;;;;;2.75;1.45;;;717.10;947.20;;;;;;4995288;28;20470;-80
2022/05/22 10:16:24;;;;;;;3.13;1.90;;;717.50;947.20;;;;;;4994786;28;20363;-80
2022/05/22 10:19:24;;;;;;;5.43;1.95;;;717.50;947.20;;;;;;4994343;28;20121;-79
2022/05/22 10:22:17;;;;;;;4.35;1.70;;;717.70;947.20;;;;;;4993033;28;20052;-79
2022/05/22 10:24:50;;;;;;;8.15;3.75;;;742.40;947.20;;;;;;4991238;28;20034;-79
2022/05/22 10:27:34;;;;;;;4.63;2.05;;;742.50;947.20;;;;;;4993513;28;20041;-80
2022/05/22 10:30:06;;;;;;;6.72;2.90;;;742.50;947.20;;;;;;4993896;28;20033;-80
2022/05/22 10:32:43;;;;;;;7.90;3.15;;;742.60;921.60;;;;;;5012012;28;20533;-78
2022/05/22 10:35:29;;;;;;;7.47;1.88;;;742.50;947.20;;;;;;4991876;28;20026;-79
2022/05/22 10:38:04;;;;;;;5.45;2.38;;;742.70;947.20;;;;;;5010895;28;20033;-81
2022/05/22 10:43:14;;;;;;;4.88;2.20;;;742.80;947.20;;;;;;5010815;28;20413;-80
2022/05/22 10:45:40;;;;;;;4.80;1.90;;;742.90;947.20;;;;;;4993829;28;20026;-78
2022/05/22 10:48:12;;;;;;;6.82;2.10;;;742.90;947.20;;;;;;5012076;28;20033;-78
2022/05/22 10:51:11;;;;;;;6.22;2.30;;;743.10;972.80;;;;;;4994575;28;20034;-80
2022/05/22 10:54:01;;;;;;;7.97;2.33;;;742.80;947.20;;;;;;4994442;28;20042;-80
2022/05/22 10:56:29;;;;;;;5.95;2.58;;;742.80;972.80;;;;;;5011809;28;20123;-79
2022/05/22 10:58:59;;;;;;;4.95;1.98;;;743.20;947.20;;;;;;5012134;28;20036;-78
2022/05/22 11:01:30;;;;;;;4.38;1.77;;;743.00;972.80;;;;;;5012197;28;20390;-79
2022/05/22 11:04:07;;;;;;;9.18;2.10;;;742.90;972.80;;;;;;4994779;28;20225;-79
2022/05/22 11:06:52;;;;;;;5.30;1.75;;;742.80;972.80;;;;;;4997088;28;20041;-80
2022/05/22 11:09:24;;;;;;;6.22;1.80;;;742.90;972.80;;;;;;4998678;28;20033;-85
2022/05/22 11:11:50;;;;;;;5.55;2.40;;;743.10;972.80;;;;;;5016619;28;20022;-82
2022/05/22 11:14:21;;;;;;;3.40;2.13;;;743.10;972.80;;;;;;4998802;28;20100;-80
2022/05/22 11:16:47;;;;;;;8.80;2.10;;;743.30;972.80;;;;;;4999103;28;20057;-85
2022/05/22 11:19:31;;;;;;;4.20;1.80;;;743.00;972.80;;;;;;4998031;28;20034;-83
2022/05/22 11:22:27;;;;;;;4.90;1.75;;;768.00;947.20;;;;;;5014591;28;20022;-84
2022/05/22 11:25:28;;;;;;;4.53;1.40;;;743.10;972.80;;;;;;5013051;28;20093;-80
2022/05/22 11:28:16;;;;;;;4.38;2.05;;;743.00;972.80;;;;;;4995419;28;20291;-85
2022/05/22 11:31:00;;;;;;;4.03;2.17;;;768.10;947.20;;;;;;5014494;28;20126;-86
2022/05/22 11:33:42;;;;;;;6.25;1.85;;;768.30;947.20;;;;;;4997003;28;20037;-76
2022/05/22 11:36:17;;;;;;;3.40;1.77;;;768.20;947.20;;;;;;4996517;28;20061;-80
2022/05/22 11:39:19;;;;;;;5.78;1.90;;;768.40;972.80;;;;;;5013895;28;20447;-78
2022/05/22 11:41:53;;;;;;;4.07;1.83;;;768.50;947.20;;;;;;5014721;28;20026;-77
2022/05/22 11:45:09;;;;;;;2.75;1.50;;;768.40;947.20;;;;;;5014645;28;20029;-79
2022/05/22 11:48:12;;;;;;;4.13;1.92;;;768.10;972.80;;;;;;4952100;29;20118;-75
2022/05/22 11:50:49;;;;;;;3.67;2.10;;;768.40;947.20;;;;;;4949851;29;20478;-76
2022/05/22 11:53:24;;;;;;;6.00;2.03;;;768.10;947.20;;;;;;4952134;29;20547;-77
2022/05/22 11:55:58;;;;;;;8.35;1.98;;;768.40;947.20;;;;;;4954280;29;20115;-78
2022/05/22 11:59:11;;;;;;;2.50;1.60;;;768.40;972.80;;;;;;4953938;29;20047;-78
2022/05/22 12:01:48;;;;;;;4.35;2.00;;;768.40;972.80;;;;;;4889229;29;20036;-79
2022/05/22 12:04:32;;;;;;;4.88;1.75;;;768.60;947.20;;;;;;4879326;29;20064;-79
2022/05/22 12:07:04;;;;;;;4.70;1.77;;;768.60;947.20;;;;;;4891544;29;20033;-78
2022/05/22 12:09:33;;;;;;;5.65;1.80;;;768.60;972.80;;;;;;4888178;29;20486;-79
2022/05/22 12:12:25;;;;;;;6.75;1.50;;;768.20;947.20;;;;;;4887468;29;20036;-79
2022/05/22 12:15:15;;;;;;;3.67;1.90;;;768.00;947.20;;;;;;4830771;29;20124;-79
2022/05/22 12:17:50;;;;;;;5.85;1.80;;;742.90;998.40;;;;;;4836399;29;20063;-80
2022/05/22 12:20:38;;;;;;;5.53;1.70;;;743.00;1024.00;;;;;;4839085;29;20034;-79
2022/05/22 12:23:15;;;;;;;4.68;1.85;;;768.10;972.80;;;;;;4856811;29;20054;-80
2022/05/22 12:25:45;;;;;;;3.80;1.95;;;768.20;972.80;;;;;;4858158;29;20046;-79
2022/05/22 12:28:47;;;;;;;4.68;2.00;;;768.50;947.20;;;;;;4859075;29;20037;-78
2022/05/22 12:31:25;;;;;;;7.25;2.25;;;768.30;947.20;;;;;;4847499;29;20108;-80
2022/05/22 12:33:53;;;;;;;3.85;1.90;;;743.00;972.80;;;;;;4857722;29;20025;-80
2022/05/22 12:36:26;;;;;;;9.90;2.90;;;743.10;972.80;;;;;;4866374;29;20040;-79
2022/05/22 12:39:13;;;;;;;8.80;1.77;;;743.10;998.40;;;;;;4915757;29;20098;-80
2022/05/22 12:42:17;;;;;;;7.20;1.75;;;743.10;998.40;;;;;;4915715;29;20032;-80
2022/05/22 12:44:44;;;;;;;2.28;1.50;;;743.30;998.40;;;;;;4915822;29;20040;-79
2022/05/22 12:47:15;;;;;;;9.10;1.85;;;743.30;972.80;;;;;;4915435;29;20047;-79
2022/05/22 12:49:56;;;;;;;7.70;1.60;;;743.30;972.80;;;;;;4915888;29;20024;-79
2022/05/22 12:52:28;;;;;;;3.75;1.48;;;768.10;998.40;;;;;;4946328;28;20510;-78
2022/05/22 12:55:09;;;;;;;3.50;1.50;;;743.10;972.80;;;;;;4974974;28;20031;-80